createdAt,value
2022-10-09T00:00:20.177Z,101560.66
2022-10-09T00:01:26.915Z,101562.47
2022-10-09T00:02:29.303Z,101558.91
2022-10-09T00:03:32.694Z,101554.47
2022-10-09T00:04:34.828Z,101559.88
2022-10-09T00:05:37.706Z,101558.09
2022-10-09T00:06:40.164Z,101554.56
2022-10-09T00:07:42.771Z,101555.38
2022-10-09T00:08:45.337Z,101560.72
2022-10-09T00:09:50.295Z,101558.97
2022-10-09T00:10:52.659Z,101556.38
2022-10-09T00:11:54.843Z,101554.59
2022-10-09T00:12:57.520Z,101550.97
2022-10-09T00:14:00.671Z,101553.63
2022-10-09T00:15:06.041Z,101554.59
2022-10-09T00:16:11.510Z,101556.31
2022-10-09T00:17:16.769Z,101551.97
2022-10-09T00:18:19.401Z,101556.31
2022-10-09T00:19:21.893Z,101556.41
2022-10-09T00:20:24.351Z,101555.47
2022-10-09T00:21:29.575Z,101556.44
2022-10-09T00:22:31.879Z,101567.06
2022-10-09T00:23:34.016Z,101565.41
2022-10-09T00:24:36.532Z,101565.41
2022-10-09T00:25:39.476Z,101560.97
2022-10-09T00:26:41.628Z,101569.03
2022-10-09T00:27:43.929Z,101567.19
2022-10-09T00:28:46.538Z,101566.34
2022-10-09T00:29:49.403Z,101568.06
2022-10-09T00:30:55.236Z,101565.50
2022-10-09T00:31:57.420Z,101558.34
2022-10-09T00:32:59.712Z,101567.19
2022-10-09T00:34:04.978Z,101567.94
2022-10-09T00:35:07.355Z,101574.22
2022-10-09T00:36:12.594Z,101561.91
2022-10-09T00:37:14.950Z,101573.47
2022-10-09T00:38:20.215Z,101564.53
2022-10-09T00:39:22.535Z,101574.34
2022-10-09T00:40:24.961Z,101574.34
2022-10-09T00:41:31.579Z,101568.31
2022-10-09T00:42:33.729Z,101567.53
2022-10-09T00:43:44.031Z,101580.06
2022-10-09T00:44:57.894Z,101577.31
2022-10-09T00:46:00.284Z,101581.78
2022-10-09T00:47:03.544Z,101580.94
2022-10-09T00:48:07.871Z,101580.06
2022-10-09T00:49:27.253Z,101581.88
2022-10-09T00:50:43.362Z,101580.97
2022-10-09T00:51:48.092Z,101575.81
2022-10-09T00:52:54.178Z,101580.31
2022-10-09T00:53:56.932Z,101587.53
2022-10-09T00:55:02.177Z,101591.09
2022-10-09T00:56:04.706Z,101586.63
2022-10-09T00:57:08.445Z,101579.59
2022-10-09T00:58:12.921Z,101585.78
2022-10-09T00:59:16.122Z,101584.06
2022-10-09T01:00:18.747Z,101592.06
2022-10-09T01:01:21.187Z,101587.63
2022-10-09T01:02:23.481Z,101581.50
2022-10-09T01:03:26.733Z,101585.13
2022-10-09T01:04:28.907Z,101588.69
2022-10-09T01:06:16.002Z,101584.19
2022-10-09T01:07:30.287Z,101593.91
2022-10-09T01:08:42.035Z,101589.44
2022-10-09T01:10:14.358Z,101592.22
2022-10-09T01:11:40.246Z,101594.97
2022-10-09T01:13:03.117Z,101594.03
2022-10-09T01:14:28.721Z,101591.38
2022-10-09T01:15:45.858Z,101593.16
2022-10-09T01:16:57.614Z,101593.25
2022-10-09T01:18:24.604Z,101591.53
2022-10-09T01:19:50.985Z,101594.97
2022-10-09T01:21:14.889Z,101595.91
2022-10-09T01:22:42.414Z,101591.38
2022-10-09T01:24:10.465Z,101598.50
2022-10-09T01:25:57.459Z,101599.50
2022-10-09T01:27:15.507Z,101595.91
2022-10-09T01:28:21.044Z,101595.09
2022-10-09T01:29:26.807Z,101591.56
2022-10-09T01:30:30.903Z,101594.38
2022-10-09T01:31:38.951Z,101590.78
2022-10-09T01:32:45.850Z,101590.75
2022-10-09T01:33:48.614Z,101594.34
2022-10-09T01:34:52.639Z,101593.50
2022-10-09T01:35:57.751Z,101593.41
2022-10-09T01:37:00.914Z,101588.22
2022-10-09T01:38:07.145Z,101595.22
2022-10-09T01:39:14.108Z,101598.81
2022-10-09T01:40:17.386Z,101594.44
2022-10-09T01:41:20.829Z,101602.47
2022-10-09T01:42:26.173Z,101604.25
2022-10-09T01:43:28.332Z,101596.25
2022-10-09T01:44:32.526Z,101605.13
2022-10-09T01:45:43.507Z,101605.97
2022-10-09T01:46:46.429Z,101606.84
2022-10-09T01:47:48.699Z,101601.56
2022-10-09T01:49:12.808Z,101613.16
2022-10-09T01:50:24.490Z,101612.34
2022-10-09T01:51:33.892Z,101604.28
2022-10-09T01:52:42.608Z,101609.63
2022-10-09T01:53:47.335Z,101604.31
2022-10-09T01:55:11.170Z,101608.81
2022-10-09T01:56:19.193Z,101611.41
2022-10-09T01:57:48.307Z,101604.31
2022-10-09T01:58:58.173Z,101617.72
2022-10-09T02:00:07.439Z,101610.56
2022-10-09T02:01:17.881Z,101601.66
2022-10-09T02:02:21.421Z,101612.38
2022-10-09T02:03:25.719Z,101621.28
2022-10-09T02:04:30.874Z,101615.03
2022-10-09T02:05:34.354Z,101610.56
2022-10-09T02:06:40.181Z,101616.75
2022-10-09T02:07:42.818Z,101619.41
2022-10-09T02:08:49.737Z,101617.69
2022-10-09T02:09:53.933Z,101618.53
2022-10-09T02:11:00.150Z,101622.00
2022-10-09T02:12:06.911Z,101626.44
2022-10-09T02:13:09.147Z,101618.47
2022-10-09T02:14:11.863Z,101621.13
2022-10-09T02:15:14.712Z,101629.22
2022-10-09T02:16:42.496Z,101636.41
2022-10-09T02:17:48.755Z,101633.81
2022-10-09T02:18:57.267Z,101631.97
2022-10-09T02:20:24.900Z,101637.25
2022-10-09T02:21:38.430Z,101632.78
2022-10-09T02:22:41.305Z,101641.66
2022-10-09T02:23:46.277Z,101633.75
2022-10-09T02:24:48.768Z,101637.41
2022-10-09T02:25:52.895Z,101637.34
2022-10-09T02:26:57.431Z,101644.56
2022-10-09T02:28:00.369Z,101641.03
2022-10-09T02:29:03.607Z,101642.75
2022-10-09T02:30:08.382Z,101646.31
2022-10-09T02:31:21.919Z,101648.03
2022-10-09T02:32:24.095Z,101648.97
2022-10-09T02:33:27.971Z,101646.41
2022-10-09T02:34:30.302Z,101653.50
2022-10-09T02:35:32.626Z,101652.63
2022-10-09T02:36:35.868Z,101655.31
2022-10-09T02:37:38.169Z,101650.69
2022-10-09T02:38:40.602Z,101652.41
2022-10-09T02:39:43.770Z,101656.03
2022-10-09T02:40:46.077Z,101660.50
2022-10-09T02:41:48.214Z,101654.38
2022-10-09T02:42:50.737Z,101663.22
2022-10-09T02:43:53.872Z,101661.44
2022-10-09T02:44:56.023Z,101664.03
2022-10-09T02:45:58.320Z,101667.47
2022-10-09T02:47:00.521Z,101669.44
2022-10-09T02:48:02.964Z,101668.59
2022-10-09T02:49:06.029Z,101664.28
2022-10-09T02:50:08.642Z,101664.31
2022-10-09T02:51:11.392Z,101661.63
2022-10-09T02:52:13.506Z,101659.91
2022-10-09T02:53:15.693Z,101667.88
2022-10-09T02:54:17.982Z,101665.22
2022-10-09T02:55:20.132Z,101674.16
2022-10-09T02:56:23.418Z,101665.28
2022-10-09T02:57:25.570Z,101661.75
2022-10-09T02:58:31.041Z,101663.50
2022-10-09T02:59:33.935Z,101662.63
2022-10-09T03:00:38.265Z,101664.44
2022-10-09T03:01:40.507Z,101663.50
2022-10-09T03:02:42.827Z,101668.78
2022-10-09T03:03:45.675Z,101664.34
2022-10-09T03:04:47.943Z,101672.34
2022-10-09T03:06:00.853Z,101667.09
2022-10-09T03:07:03.232Z,101675.03
2022-10-09T03:08:05.798Z,101677.72
2022-10-09T03:09:07.998Z,101672.47
2022-10-09T03:10:10.300Z,101667.19
2022-10-09T03:11:15.994Z,101677.00
2022-10-09T03:12:21.333Z,101676.19
2022-10-09T03:13:23.837Z,101671.75
2022-10-09T03:14:26.057Z,101673.53
2022-10-09T03:15:28.400Z,101683.31
2022-10-09T03:16:30.862Z,101674.41
2022-10-09T03:17:33.054Z,101677.09
2022-10-09T03:18:35.520Z,101671.69
2022-10-09T03:19:37.694Z,101679.69
2022-10-09T03:20:39.996Z,101679.66
2022-10-09T03:21:42.264Z,101683.19
2022-10-09T03:22:44.567Z,101684.06
2022-10-09T03:23:47.166Z,101681.44
2022-10-09T03:24:49.317Z,101685.00
2022-10-09T03:26:02.864Z,101687.66
2022-10-09T03:27:05.119Z,101684.13
2022-10-09T03:28:07.332Z,101685.81
2022-10-09T03:29:09.536Z,101687.69
2022-10-09T03:30:12.234Z,101687.69
2022-10-09T03:31:27.660Z,101682.31
2022-10-09T03:32:38.148Z,101687.66
2022-10-09T03:33:40.322Z,101685.06
2022-10-09T03:34:42.495Z,101681.53
2022-10-09T03:35:46.699Z,101686.84
2022-10-09T03:36:50.308Z,101685.94
2022-10-09T03:37:52.743Z,101680.66
2022-10-09T03:38:55.025Z,101685.06
2022-10-09T03:39:58.161Z,101689.53
2022-10-09T03:41:01.582Z,101684.22
2022-10-09T03:42:03.945Z,101690.41
2022-10-09T03:43:06.460Z,101683.34
2022-10-09T03:44:09.388Z,101681.53
2022-10-09T03:45:11.815Z,101682.25
2022-10-09T03:46:21.503Z,101684.13
2022-10-09T03:47:27.744Z,101690.38
2022-10-09T03:48:30.062Z,101688.59
2022-10-09T03:49:32.263Z,101691.25
2022-10-09T03:50:34.614Z,101689.53
2022-10-09T03:51:37.377Z,101695.66
2022-10-09T03:52:41.041Z,101692.19
2022-10-09T03:53:43.472Z,101694.00
2022-10-09T03:54:45.745Z,101693.09
2022-10-09T03:55:47.910Z,101693.06
2022-10-09T03:56:50.047Z,101696.66
2022-10-09T03:57:52.220Z,101690.41
2022-10-09T03:58:54.507Z,101697.53
2022-10-09T03:59:56.778Z,101694.00
2022-10-09T04:00:59.016Z,101697.59
2022-10-09T04:02:01.201Z,101701.13
2022-10-09T04:03:03.829Z,101705.56
2022-10-09T04:04:06.181Z,101700.25
2022-10-09T04:05:08.870Z,101702.91
2022-10-09T04:06:11.278Z,101703.81
2022-10-09T04:07:13.582Z,101707.31
2022-10-09T04:08:16.094Z,101714.47
2022-10-09T04:09:18.383Z,101706.47
2022-10-09T04:10:20.680Z,101713.47
2022-10-09T04:11:22.955Z,101713.47
2022-10-09T04:12:25.190Z,101712.59
2022-10-09T04:13:27.795Z,101717.06
2022-10-09T04:14:31.477Z,101717.00
2022-10-09T04:15:35.232Z,101717.94
2022-10-09T04:16:37.514Z,101721.56
2022-10-09T04:17:39.759Z,101724.22
2022-10-09T04:18:43.449Z,101724.22
2022-10-09T04:19:45.779Z,101725.13
2022-10-09T04:20:55.851Z,101726.03
2022-10-09T04:21:58.164Z,101724.25
2022-10-09T04:23:00.516Z,101720.69
2022-10-09T04:24:03.669Z,101721.66
2022-10-09T04:25:06.069Z,101728.72
2022-10-09T04:26:11.596Z,101718.91
2022-10-09T04:27:13.959Z,101725.22
2022-10-09T04:28:16.167Z,101719.91
2022-10-09T04:29:18.344Z,101729.72
2022-10-09T04:30:20.501Z,101727.09
2022-10-09T04:31:22.828Z,101732.41
2022-10-09T04:32:25.007Z,101731.56
2022-10-09T04:33:27.775Z,101732.44
2022-10-09T04:34:30.173Z,101734.16
2022-10-09T04:35:32.298Z,101734.16
2022-10-09T04:36:34.447Z,101733.25
2022-10-09T04:37:36.950Z,101729.72
2022-10-09T04:38:39.210Z,101724.44
2022-10-09T04:39:41.343Z,101728.91
2022-10-09T04:40:43.943Z,101736.97
2022-10-09T04:41:46.065Z,101729.00
2022-10-09T04:42:48.691Z,101727.16
2022-10-09T04:43:55.779Z,101733.41
2022-10-09T04:44:58.036Z,101729.88
2022-10-09T04:46:04.732Z,101734.34
2022-10-09T04:47:11.079Z,101727.22
2022-10-09T04:48:13.755Z,101728.03
2022-10-09T04:49:16.124Z,101728.03
2022-10-09T04:50:18.303Z,101731.63
2022-10-09T04:51:32.649Z,101720.09
2022-10-09T04:52:34.925Z,101728.06
2022-10-09T04:54:41.071Z,101728.06
2022-10-09T04:55:43.578Z,101728.91
2022-10-09T04:56:45.742Z,101730.66
2022-10-09T04:57:48.039Z,101721.72
2022-10-09T04:58:50.722Z,101729.78
2022-10-09T04:59:53.238Z,101736.84
2022-10-09T05:00:55.451Z,101730.56
2022-10-09T05:01:57.808Z,101732.25
2022-10-09T05:02:59.982Z,101736.69
2022-10-09T05:04:02.131Z,101731.38
2022-10-09T05:05:04.570Z,101740.38
2022-10-09T05:06:09.059Z,101741.28
2022-10-09T05:07:11.325Z,101736.91
2022-10-09T05:08:13.492Z,101742.22
2022-10-09T05:09:15.788Z,101748.38
2022-10-09T05:10:18.084Z,101743.91
2022-10-09T05:11:25.750Z,101745.75
2022-10-09T05:12:27.908Z,101738.63
2022-10-09T05:13:36.689Z,101741.22
2022-10-09T05:14:38.963Z,101744.72
2022-10-09T05:15:41.229Z,101751.03
2022-10-09T05:17:01.292Z,101748.34
2022-10-09T05:18:06.019Z,101749.22
2022-10-09T05:19:08.208Z,101753.69
2022-10-09T05:20:10.616Z,101751.91
2022-10-09T05:21:13.382Z,101755.44
2022-10-09T05:22:15.536Z,101756.28
2022-10-09T05:23:17.803Z,101762.50
2022-10-09T05:24:20.200Z,101759.88
2022-10-09T05:25:22.319Z,101762.56
2022-10-09T05:26:27.699Z,101770.56
2022-10-09T05:27:29.848Z,101764.41
2022-10-09T05:28:33.034Z,101772.41
2022-10-09T05:29:35.388Z,101760.84
2022-10-09T05:30:41.869Z,101763.47
2022-10-09T05:31:49.106Z,101769.63
2022-10-09T05:32:51.941Z,101759.88
2022-10-09T05:33:56.292Z,101758.97
2022-10-09T05:34:58.441Z,101762.56
2022-10-09T05:36:03.479Z,101764.34
2022-10-09T05:37:05.898Z,101760.75
2022-10-09T05:38:08.082Z,101761.69
2022-10-09T05:39:10.403Z,101763.47
2022-10-09T05:40:12.549Z,101759.91
2022-10-09T05:41:17.247Z,101766.16
2022-10-09T05:42:19.678Z,101767.91
2022-10-09T05:43:26.826Z,101767.03
2022-10-09T05:44:28.962Z,101765.22
2022-10-09T05:45:31.137Z,101764.38
2022-10-09T05:46:33.512Z,101767.91
2022-10-09T05:47:35.642Z,101772.34
2022-10-09T05:48:39.800Z,101774.03
2022-10-09T05:49:42.056Z,101775.84
2022-10-09T05:50:44.284Z,101772.38
2022-10-09T05:51:46.622Z,101772.25
2022-10-09T05:52:48.870Z,101777.56
2022-10-09T05:53:51.983Z,101781.13
2022-10-09T05:54:54.151Z,101781.13
2022-10-09T05:55:58.533Z,101783.75
2022-10-09T05:57:04.921Z,101785.53
2022-10-09T05:58:07.329Z,101782.88
2022-10-09T05:59:14.921Z,101790.88
2022-10-09T06:00:17.155Z,101783.75
2022-10-09T06:01:20.515Z,101787.31
2022-10-09T06:02:22.766Z,101792.66
2022-10-09T06:03:25.002Z,101787.28
2022-10-09T06:04:27.476Z,101785.34
2022-10-09T06:05:29.684Z,101794.28
2022-10-09T06:06:35.614Z,101790.63
2022-10-09T06:07:38.151Z,101797.75
2022-10-09T06:08:40.329Z,101796.88
2022-10-09T06:09:42.828Z,101790.69
2022-10-09T06:10:45.043Z,101789.75
2022-10-09T06:11:47.199Z,101799.56
2022-10-09T06:12:49.569Z,101797.81
2022-10-09T06:13:52.368Z,101798.59
2022-10-09T06:14:54.644Z,101788.75
2022-10-09T06:15:56.946Z,101794.06
2022-10-09T06:16:59.682Z,101795.88
2022-10-09T06:18:02.076Z,101799.34
2022-10-09T06:19:06.711Z,101799.34
2022-10-09T06:20:09.808Z,101797.53
2022-10-09T06:21:12.081Z,101806.47
2022-10-09T06:22:14.352Z,101802.88
2022-10-09T06:23:16.491Z,101803.69
2022-10-09T06:24:28.988Z,101810.84
2022-10-09T06:25:31.433Z,101803.72
2022-10-09T06:26:34.381Z,101804.59
2022-10-09T06:27:36.515Z,101808.13
2022-10-09T06:28:40.091Z,101800.06
2022-10-09T06:29:42.251Z,101805.34
2022-10-09T06:30:44.414Z,101807.06
2022-10-09T06:31:46.753Z,101808.06
2022-10-09T06:32:50.409Z,101814.22
2022-10-09T06:33:53.883Z,101811.53
2022-10-09T06:34:57.340Z,101815.19
2022-10-09T06:36:09.976Z,101818.81
2022-10-09T06:37:13.574Z,101815.22
2022-10-09T06:38:17.933Z,101818.81
2022-10-09T06:39:20.452Z,101817.00
2022-10-09T06:40:22.579Z,101821.47
2022-10-09T06:41:27.177Z,101826.81
2022-10-09T06:42:29.340Z,101820.56
2022-10-09T06:43:33.528Z,101824.09
2022-10-09T06:44:35.813Z,101820.56
2022-10-09T06:45:38.660Z,101830.28
2022-10-09T06:46:41.744Z,101826.75
2022-10-09T06:47:43.908Z,101832.97
2022-10-09T06:48:46.468Z,101833.75
2022-10-09T06:49:48.603Z,101837.28
2022-10-09T06:50:50.939Z,101840.81
2022-10-09T06:51:53.131Z,101839.88
2022-10-09T06:52:55.310Z,101841.63
2022-10-09T06:54:00.087Z,101839.72
2022-10-09T06:55:02.391Z,101838.53
2022-10-09T06:56:04.973Z,101842.66
2022-10-09T06:57:07.435Z,101837.78
2022-10-09T06:58:09.582Z,101839.91
2022-10-09T06:59:11.983Z,101850.06
2022-10-09T07:00:14.935Z,101839.56
2022-10-09T07:01:32.589Z,101839.03
2022-10-09T07:02:34.964Z,101846.47
2022-10-09T07:03:39.367Z,101846.59
2022-10-09T07:04:41.497Z,101845.00
2022-10-09T07:05:43.664Z,101840.97
2022-10-09T07:06:49.278Z,101844.91
2022-10-09T07:07:51.472Z,101852.41
2022-10-09T07:09:00.985Z,101854.09
2022-10-09T07:10:03.165Z,101851.25
2022-10-09T07:11:12.607Z,101854.38
2022-10-09T07:12:14.945Z,101853.88
2022-10-09T07:13:17.133Z,101850.75
2022-10-09T07:14:19.468Z,101850.34
2022-10-09T07:15:21.626Z,101857.28
2022-10-09T07:16:26.416Z,101856.34
2022-10-09T07:17:29.030Z,101853.47
2022-10-09T07:18:34.224Z,101859.97
2022-10-09T07:19:36.490Z,101862.59
2022-10-09T07:20:38.757Z,101864.25
2022-10-09T07:21:43.265Z,101865.97
2022-10-09T07:22:45.410Z,101865.56
2022-10-09T07:23:47.934Z,101868.13
2022-10-09T07:24:50.808Z,101863.81
2022-10-09T07:25:53.160Z,101873.56
2022-10-09T07:26:57.285Z,101870.19
2022-10-09T07:27:59.562Z,101869.41
2022-10-09T07:29:03.002Z,101874.31
2022-10-09T07:30:05.610Z,101879.13
2022-10-09T07:31:09.092Z,101880.56
2022-10-09T07:32:11.309Z,101876.19
2022-10-09T07:33:13.588Z,101875.53
2022-10-09T07:34:16.223Z,101875.13
2022-10-09T07:35:18.390Z,101880.19
2022-10-09T07:36:21.006Z,101877.13
2022-10-09T07:37:23.147Z,101882.31
2022-10-09T07:38:25.562Z,101876.22
2022-10-09T07:39:27.983Z,101877.78
2022-10-09T07:40:33.215Z,101877.50
2022-10-09T07:41:35.621Z,101885.84
2022-10-09T07:42:37.751Z,101884.81
2022-10-09T07:43:42.172Z,101875.72
2022-10-09T07:44:44.587Z,101876.38
2022-10-09T07:45:47.064Z,101874.41
2022-10-09T07:46:51.491Z,101882.41
2022-10-09T07:47:55.907Z,101874.88
2022-10-09T07:48:58.110Z,101875.78
2022-10-09T07:50:00.292Z,101875.91
2022-10-09T07:51:22.360Z,101880.03
2022-10-09T07:52:24.670Z,101875.41
2022-10-09T07:53:26.860Z,101880.41
2022-10-09T07:54:31.684Z,101876.91
2022-10-09T07:55:33.837Z,101877.28
2022-10-09T07:56:40.519Z,101885.09
2022-10-09T07:57:42.815Z,101878.13
2022-10-09T07:58:52.707Z,101876.59
2022-10-09T07:59:55.320Z,101886.47
2022-10-09T08:01:03.775Z,101885.63
2022-10-09T08:02:06.074Z,101878.97
2022-10-09T08:03:08.797Z,101890.31
2022-10-09T08:04:11.421Z,101885.22
2022-10-09T08:05:13.577Z,101885.22
2022-10-09T08:06:17.196Z,101890.00
2022-10-09T08:07:19.468Z,101883.88
2022-10-09T08:08:21.705Z,101876.41
2022-10-09T08:09:24.046Z,101883.13
2022-10-09T08:10:30.519Z,101873.53
2022-10-09T08:11:33.010Z,101882.41
2022-10-09T08:12:35.171Z,101877.66
2022-10-09T08:13:40.949Z,101879.28
2022-10-09T08:14:43.472Z,101879.19
2022-10-09T08:15:48.668Z,101879.63
2022-10-09T08:16:50.980Z,101879.81
2022-10-09T08:17:54.408Z,101882.06
2022-10-09T08:18:58.944Z,101882.44
2022-10-09T08:20:01.294Z,101884.91
2022-10-09T08:21:11.691Z,101876.91
2022-10-09T08:22:13.983Z,101887.66
2022-10-09T08:23:16.137Z,101891.81
2022-10-09T08:24:18.528Z,101891.41
2022-10-09T08:25:20.888Z,101891.81
2022-10-09T08:26:24.342Z,101881.88
2022-10-09T08:27:26.521Z,101883.28
2022-10-09T08:28:28.781Z,101885.13
2022-10-09T08:29:31.145Z,101892.28
2022-10-09T08:30:33.332Z,101899.50
2022-10-09T08:31:35.907Z,101885.72
2022-10-09T08:32:38.069Z,101894.09
2022-10-09T08:33:40.568Z,101889.66
2022-10-09T08:34:42.721Z,101890.38
2022-10-09T08:35:45.088Z,101893.56
2022-10-09T08:36:47.278Z,101892.44
2022-10-09T08:37:49.591Z,101898.63
2022-10-09T08:38:52.200Z,101894.72
2022-10-09T08:39:54.381Z,101893.97
2022-10-09T08:41:14.277Z,101893.94
2022-10-09T08:42:44.659Z,101892.88
2022-10-09T08:43:52.147Z,101892.03
2022-10-09T08:44:55.424Z,101897.66
2022-10-09T08:46:02.114Z,101884.50
2022-10-09T08:47:23.203Z,101891.13
2022-10-09T08:48:26.863Z,101890.66
2022-10-09T08:49:55.347Z,101889.13
2022-10-09T08:50:59.971Z,101883.69
2022-10-09T08:52:17.380Z,101893.56
2022-10-09T08:53:37.436Z,101891.13
2022-10-09T08:54:40.055Z,101885.22
2022-10-09T08:55:55.986Z,101887.50
2022-10-09T08:57:02.774Z,101886.97
2022-10-09T08:58:14.130Z,101885.66
2022-10-09T08:59:16.461Z,101882.03
2022-10-09T09:00:24.233Z,101877.13
2022-10-09T09:01:44.544Z,101881.31
2022-10-09T09:03:14.461Z,101884.31
2022-10-09T09:04:38.208Z,101886.00
2022-10-09T09:05:52.480Z,101883.00
2022-10-09T09:07:09.740Z,101885.94
2022-10-09T09:08:17.960Z,101886.69
2022-10-09T09:09:34.556Z,101889.34
2022-10-09T09:10:54.801Z,101883.56
2022-10-09T09:12:20.217Z,101879.56
2022-10-09T09:13:53.752Z,101879.38
2022-10-09T09:15:03.241Z,101884.28
2022-10-09T09:16:25.972Z,101886.94
2022-10-09T09:17:54.201Z,101886.03
2022-10-09T09:19:53.741Z,101887.00
2022-10-09T09:21:18.507Z,101890.31
2022-10-09T09:22:21.509Z,101890.19
2022-10-09T09:23:29.583Z,101883.03
2022-10-09T09:24:55.987Z,101884.56
2022-10-09T09:25:59.650Z,101883.34
2022-10-09T09:27:10.417Z,101887.72
2022-10-09T09:28:19.245Z,101882.50
2022-10-09T09:29:26.536Z,101878.28
2022-10-09T09:30:36.435Z,101884.50
2022-10-09T09:31:41.398Z,101881.09
2022-10-09T09:33:04.708Z,101884.00
2022-10-09T09:34:09.763Z,101879.59
2022-10-09T09:35:33.731Z,101878.28
2022-10-09T09:36:44.417Z,101876.00
2022-10-09T09:37:46.990Z,101878.94
2022-10-09T09:39:26.014Z,101881.81
2022-10-09T09:40:36.732Z,101876.19
2022-10-09T09:41:41.451Z,101878.81
2022-10-09T09:42:44.057Z,101885.09
2022-10-09T09:43:49.643Z,101877.22
2022-10-09T09:45:16.627Z,101877.00
2022-10-09T09:46:23.507Z,101880.38
2022-10-09T09:47:33.469Z,101869.09
2022-10-09T09:48:38.256Z,101879.38
2022-10-09T09:49:53.766Z,101869.31
2022-10-09T09:51:16.221Z,101879.50
2022-10-09T09:52:18.773Z,101871.06
2022-10-09T09:53:30.709Z,101868.91
2022-10-09T09:54:33.798Z,101864.91
2022-10-09T09:55:38.946Z,101869.16
2022-10-09T09:58:15.492Z,101873.78
2022-10-09T09:59:32.561Z,101866.59
2022-10-09T10:00:36.028Z,101869.63
2022-10-09T10:01:38.290Z,101870.59
2022-10-09T10:02:40.677Z,101873.44
2022-10-09T10:03:50.672Z,101868.69
2022-10-09T10:05:14.517Z,101870.19
2022-10-09T10:06:28.902Z,101873.56
2022-10-09T10:07:39.017Z,101866.47
2022-10-09T10:08:41.269Z,101871.00
2022-10-09T10:09:43.561Z,101867.41
2022-10-09T10:10:47.817Z,101869.38
2022-10-09T10:11:59.246Z,101869.09
2022-10-09T10:13:01.826Z,101864.03
2022-10-09T10:14:08.940Z,101864.97
2022-10-09T10:15:27.571Z,101863.41
2022-10-09T10:16:31.636Z,101857.88
2022-10-09T10:17:36.990Z,101863.56
2022-10-09T10:18:43.561Z,101859.38
2022-10-09T10:19:50.522Z,101862.16
2022-10-09T10:20:55.565Z,101857.72
2022-10-09T10:22:03.587Z,101854.63
2022-10-09T10:23:06.066Z,101849.66
2022-10-09T10:24:15.271Z,101847.59
2022-10-09T10:25:19.484Z,101850.22
2022-10-09T10:26:28.462Z,101845.41
2022-10-09T10:27:39.195Z,101850.25
2022-10-09T10:28:49.204Z,101848.97
2022-10-09T10:29:58.013Z,101847.22
2022-10-09T10:31:05.681Z,101849.56
2022-10-09T10:33:04.729Z,101847.03
2022-10-09T10:34:18.295Z,101853.81
2022-10-09T10:35:29.561Z,101849.03
2022-10-09T10:36:33.908Z,101855.41
2022-10-09T10:37:52.666Z,101853.81
2022-10-09T10:39:06.506Z,101857.75
2022-10-09T10:40:30.069Z,101847.09
2022-10-09T10:41:44.615Z,101841.28
2022-10-09T10:43:11.227Z,101844.00
2022-10-09T10:44:52.710Z,101840.81
2022-10-09T10:46:13.429Z,101842.53
2022-10-09T10:47:23.885Z,101842.72
2022-10-09T10:48:34.409Z,101845.88
2022-10-09T10:49:36.736Z,101841.25
2022-10-09T10:50:46.818Z,101841.09
2022-10-09T10:52:04.208Z,101837.97
2022-10-09T10:53:20.848Z,101835.22
2022-10-09T10:54:51.979Z,101838.59
2022-10-09T10:56:04.958Z,101831.41
2022-10-09T10:57:23.279Z,101834.47
2022-10-09T10:58:52.285Z,101825.44
2022-10-09T11:00:06.551Z,101824.91
2022-10-09T11:01:18.312Z,101827.41
2022-10-09T11:02:41.144Z,101820.25
2022-10-09T11:04:10.841Z,101822.84
2022-10-09T11:06:01.139Z,101818.13
2022-10-09T11:07:33.345Z,101821.72
2022-10-09T11:08:41.211Z,101820.91
2022-10-09T11:09:55.210Z,101821.59
2022-10-09T11:11:08.701Z,101818.47
2022-10-09T11:12:36.351Z,101816.31
2022-10-09T11:14:01.475Z,101816.69
2022-10-09T11:15:17.024Z,101804.31
2022-10-09T11:16:27.545Z,101807.72
2022-10-09T11:18:07.098Z,101809.03
2022-10-09T11:19:45.519Z,101809.38
2022-10-09T11:21:13.894Z,101805.06
2022-10-09T11:22:37.613Z,101808.41
2022-10-09T11:24:13.732Z,101803.75
2022-10-09T11:25:29.542Z,101805.06
2022-10-09T11:27:03.018Z,101802.78
2022-10-09T11:28:27.024Z,101800.59
2022-10-09T11:29:37.418Z,101800.16
2022-10-09T11:30:54.500Z,101799.66
2022-10-09T11:32:03.015Z,101802.03
2022-10-09T11:33:29.200Z,101801.31
2022-10-09T11:34:37.438Z,101792.00
2022-10-09T11:35:56.209Z,101795.88
2022-10-09T11:37:00.397Z,101780.78
2022-10-09T11:38:08.156Z,101788.09
2022-10-09T11:39:18.930Z,101785.56
2022-10-09T11:40:29.074Z,101789.94
2022-10-09T11:41:31.663Z,101787.09
2022-10-09T11:42:34.077Z,101786.03
2022-10-09T11:43:44.071Z,101785.97
2022-10-09T11:45:00.428Z,101779.03
2022-10-09T11:46:55.097Z,101776.78
2022-10-09T11:48:21.391Z,101778.34
2022-10-09T11:49:49.918Z,101776.47
2022-10-09T11:51:01.404Z,101769.22
2022-10-09T11:52:09.138Z,101769.38
2022-10-09T11:53:28.689Z,101767.47
2022-10-09T11:54:31.064Z,101767.00
2022-10-09T11:55:34.263Z,101761.91
2022-10-09T11:56:36.456Z,101765.56
2022-10-09T11:57:38.640Z,101762.19
2022-10-09T11:58:41.046Z,101759.38
2022-10-09T11:59:43.525Z,101750.69
2022-10-09T12:00:48.015Z,101751.50
2022-10-09T12:01:50.282Z,101746.38
2022-10-09T12:03:01.652Z,101755.97
2022-10-09T12:04:27.769Z,101749.41
2022-10-09T12:05:47.436Z,101748.06
2022-10-09T12:06:50.863Z,101748.59
2022-10-09T12:07:53.178Z,101741.56
2022-10-09T12:08:57.736Z,101743.41
2022-10-09T12:10:21.950Z,101743.13
2022-10-09T12:11:25.553Z,101738.81
2022-10-09T12:12:28.248Z,101736.75
2022-10-09T12:13:39.607Z,101735.56
2022-10-09T12:14:44.060Z,101733.25
2022-10-09T12:15:56.228Z,101731.28
2022-10-09T12:17:02.246Z,101733.25
2022-10-09T12:18:29.078Z,101734.41
2022-10-09T12:19:40.684Z,101733.31
2022-10-09T12:20:47.743Z,101728.59
2022-10-09T12:22:20.548Z,101726.69
2022-10-09T12:23:31.562Z,101726.44
2022-10-09T12:24:41.007Z,101719.56
2022-10-09T12:25:45.833Z,101726.81
2022-10-09T12:26:53.773Z,101725.50
2022-10-09T12:27:58.745Z,101731.03
2022-10-09T12:29:05.323Z,101728.19
2022-10-09T12:30:18.713Z,101731.78
2022-10-09T12:31:38.484Z,101729.94
2022-10-09T12:32:45.966Z,101724.75
2022-10-09T12:33:54.881Z,101725.13
2022-10-09T12:35:02.092Z,101720.97
2022-10-09T12:36:10.183Z,101726.22
2022-10-09T12:37:16.406Z,101720.94
2022-10-09T12:38:25.735Z,101714.28
2022-10-09T12:39:28.674Z,101713.06
2022-10-09T12:40:34.040Z,101716.41
2022-10-09T12:41:36.916Z,101708.19
2022-10-09T12:42:39.811Z,101719.06
2022-10-09T12:43:46.075Z,101713.66
2022-10-09T12:44:50.863Z,101712.00
2022-10-09T12:45:57.165Z,101708.81
2022-10-09T12:47:05.582Z,101710.56
2022-10-09T12:48:13.720Z,101706.63
2022-10-09T12:49:24.924Z,101702.72
2022-10-09T12:50:34.775Z,101707.72